CheckWX is a tool to help pilots better visualize weather data.  It is not intended as a substitute for an official pre-flight weather briefing.

15:08:42 UTC

YPAD TAF
Adelaide International Airport
Adelaide, Australia
TAF YPAD 221121Z 2212/2318 13006KT CAVOK FM221800 04008KT CAVOK FM230100 31008KT CAVOK FM230400 25008KT CAVOK FM231000 11006KT CAVOK

Oct-22@
12:00 UTC

Oct-22 @ 12:00 UTC

Oct-22@
18:00 UTC

Oct-22 @ 18:00 UTC

TAF YPAD 221121Z 2212/2318 13006KT CAVOK
Wind
  • 130° at 6 KTS
Conditions
No significant weather
Cloud Levels
  • No significant clouds

Oct-22@
18:00 UTC

Oct-22 @ 18:00 UTC

Oct-23@
01:00 UTC

Oct-23 @ 01:00 UTC

FM221800 04008KT CAVOK

From

From Standard forecast or significant change

Wind
  • 040° at 8 KTS
Conditions
No significant weather
Cloud Levels
  • No significant clouds

Oct-23@
01:00 UTC

Oct-23 @ 01:00 UTC

Oct-23@
04:00 UTC

Oct-23 @ 04:00 UTC

FM230100 31008KT CAVOK

From

From Standard forecast or significant change

Wind
  • 310° at 8 KTS
Conditions
No significant weather
Cloud Levels
  • No significant clouds

Oct-23@
04:00 UTC

Oct-23 @ 04:00 UTC

Oct-23@
10:00 UTC

Oct-23 @ 10:00 UTC

FM230400 25008KT CAVOK

From

From Standard forecast or significant change

Wind
  • 250° at 8 KTS
Conditions
No significant weather
Cloud Levels
  • No significant clouds

Oct-23@
10:00 UTC

Oct-23 @ 10:00 UTC

Oct-23@
18:00 UTC

Oct-23 @ 18:00 UTC

FM231000 11006KT CAVOK

From

From Standard forecast or significant change

Wind
  • 110° at 6 KTS
Conditions
No significant weather
Cloud Levels
  • No significant clouds